createdAt,value
2018-06-09T00:01:13.095Z,1016.61
2018-06-09T00:02:40.567Z,1016.63
2018-06-09T00:04:08.124Z,1016.61
2018-06-09T00:05:35.508Z,1016.64
2018-06-09T00:07:02.777Z,1016.64
2018-06-09T00:08:30.268Z,1016.66
2018-06-09T00:09:57.536Z,1016.62
2018-06-09T00:11:24.975Z,1016.61
2018-06-09T00:12:52.297Z,1016.61
2018-06-09T00:14:19.684Z,1016.61
2018-06-09T00:15:47.160Z,1016.58
2018-06-09T00:17:14.471Z,1016.59
2018-06-09T00:18:41.892Z,1016.59
2018-06-09T00:20:09.456Z,1016.62
2018-06-09T00:21:36.738Z,1016.61
2018-06-09T00:23:03.975Z,1016.60
2018-06-09T00:24:31.437Z,1016.60
2018-06-09T00:25:58.982Z,1016.60
2018-06-09T00:27:26.507Z,1016.58
2018-06-09T00:28:53.929Z,1016.58
2018-06-09T00:30:21.282Z,1016.59
2018-06-09T00:31:48.659Z,1016.58
2018-06-09T00:33:16.223Z,1016.60
2018-06-09T00:34:43.723Z,1016.59
2018-06-09T00:36:11.194Z,1016.61
2018-06-09T00:37:38.598Z,1016.62
2018-06-09T00:39:06.035Z,1016.65
2018-06-09T00:40:33.296Z,1016.66
2018-06-09T00:42:00.423Z,1016.70
2018-06-09T00:43:27.610Z,1016.72
2018-06-09T00:44:54.987Z,1016.69
2018-06-09T00:46:22.395Z,1016.70
2018-06-09T00:47:49.815Z,1016.71
2018-06-09T00:49:17.230Z,1016.71
2018-06-09T00:50:44.839Z,1016.73
2018-06-09T00:52:12.274Z,1016.72
2018-06-09T00:53:39.676Z,1016.73
2018-06-09T00:55:06.983Z,1016.71
2018-06-09T00:56:34.358Z,1016.69
2018-06-09T00:58:01.786Z,1016.68
2018-06-09T00:59:29.352Z,1016.68
2018-06-09T01:00:56.869Z,1016.68
2018-06-09T01:02:24.134Z,1016.70
2018-06-09T01:03:54.431Z,1016.68
2018-06-09T01:05:18.971Z,1016.69
2018-06-09T01:06:46.324Z,1016.71
2018-06-09T01:08:13.598Z,1016.71
2018-06-09T01:09:40.781Z,1016.71
2018-06-09T01:11:08.092Z,1016.73
2018-06-09T01:12:35.575Z,1016.74
2018-06-09T01:14:03.130Z,1016.75
2018-06-09T01:15:30.228Z,1016.75
2018-06-09T01:16:57.600Z,1016.76
2018-06-09T01:18:24.930Z,1016.75
2018-06-09T01:19:52.398Z,1016.79
2018-06-09T01:21:19.773Z,1016.79
2018-06-09T01:22:47.405Z,1016.79
2018-06-09T01:24:14.472Z,1016.80
2018-06-09T01:25:41.920Z,1016.79
2018-06-09T01:27:09.190Z,1016.80
2018-06-09T01:28:36.732Z,1016.79
2018-06-09T01:30:04.273Z,1016.77
2018-06-09T01:31:31.849Z,1016.81
2018-06-09T01:32:59.304Z,1016.81
2018-06-09T01:34:26.685Z,1016.82
2018-06-09T01:35:54.235Z,1016.82
2018-06-09T01:37:21.480Z,1016.84
2018-06-09T01:38:49.022Z,1016.88
2018-06-09T01:40:16.587Z,1016.91
2018-06-09T01:41:43.859Z,1016.92
2018-06-09T01:43:11.376Z,1016.93
2018-06-09T01:44:38.664Z,1016.95
2018-06-09T01:46:05.947Z,1016.94
2018-06-09T01:47:33.077Z,1016.95
2018-06-09T01:49:00.477Z,1016.97
2018-06-09T01:50:27.739Z,1016.99
2018-06-09T01:51:55.362Z,1016.99
2018-06-09T01:53:22.654Z,1016.97
2018-06-09T01:54:50.216Z,1016.98
2018-06-09T01:56:17.500Z,1016.98
2018-06-09T01:57:44.909Z,1016.99
2018-06-09T01:59:12.272Z,1016.99
2018-06-09T02:00:39.545Z,1016.98
2018-06-09T02:02:06.948Z,1016.98
2018-06-09T02:03:34.543Z,1016.99
2018-06-09T02:05:01.941Z,1016.97
2018-06-09T02:06:29.338Z,1016.98
2018-06-09T02:07:56.699Z,1017.01
2018-06-09T02:09:24.207Z,1017.02
2018-06-09T02:10:51.692Z,1017.02
2018-06-09T02:12:19.305Z,1017.04
2018-06-09T02:13:46.731Z,1017.07
2018-06-09T02:15:14.010Z,1017.09
2018-06-09T02:16:41.032Z,1017.09
2018-06-09T02:18:08.259Z,1017.07
2018-06-09T02:19:35.967Z,1017.08
2018-06-09T02:21:03.348Z,1017.05
2018-06-09T02:22:30.732Z,1017.04
2018-06-09T02:23:58.018Z,1017.03
2018-06-09T02:25:25.530Z,1017.00
2018-06-09T02:26:52.880Z,1017.02
2018-06-09T02:28:19.934Z,1017.02
2018-06-09T02:29:47.358Z,1017.01
2018-06-09T02:31:14.791Z,1016.99
2018-06-09T02:32:42.363Z,1016.97
2018-06-09T02:34:09.807Z,1016.96
2018-06-09T02:35:37.042Z,1016.94
2018-06-09T02:37:04.200Z,1016.96
2018-06-09T02:38:31.564Z,1016.96
2018-06-09T02:39:58.889Z,1016.94
2018-06-09T02:41:26.295Z,1016.99
2018-06-09T02:42:53.797Z,1017.01
2018-06-09T02:44:21.216Z,1017.06
2018-06-09T02:45:48.727Z,1017.11
2018-06-09T02:47:16.136Z,1017.14
2018-06-09T02:48:43.639Z,1017.15
2018-06-09T02:50:11.044Z,1017.14
2018-06-09T02:51:38.340Z,1017.13
2018-06-09T02:53:05.549Z,1017.13
2018-06-09T02:54:33.173Z,1017.16
2018-06-09T02:56:00.196Z,1017.17
2018-06-09T02:57:27.678Z,1017.14
2018-06-09T02:58:55.012Z,1017.14
2018-06-09T03:00:22.169Z,1017.13
2018-06-09T03:01:49.657Z,1017.14
2018-06-09T03:03:17.217Z,1017.16
2018-06-09T03:04:44.623Z,1017.19
2018-06-09T03:06:12.161Z,1017.20
2018-06-09T03:07:39.565Z,1017.20
2018-06-09T03:09:06.965Z,1017.20
2018-06-09T03:10:34.371Z,1017.19
2018-06-09T03:12:01.842Z,1017.20
2018-06-09T03:13:29.060Z,1017.18
2018-06-09T03:14:56.735Z,1017.19
2018-06-09T03:16:23.911Z,1017.20
2018-06-09T03:17:51.364Z,1017.25
2018-06-09T03:19:18.920Z,1017.21
2018-06-09T03:20:46.454Z,1017.22
2018-06-09T03:22:13.995Z,1017.21
2018-06-09T03:23:41.219Z,1017.17
2018-06-09T03:25:08.596Z,1017.12
2018-06-09T03:26:36.098Z,1017.08
2018-06-09T03:28:03.466Z,1017.07
2018-06-09T03:29:30.915Z,1017.04
2018-06-09T03:30:58.444Z,1017.03
2018-06-09T03:32:25.764Z,1017.02
2018-06-09T03:33:53.280Z,1017.02
2018-06-09T03:35:20.662Z,1017.06
2018-06-09T03:36:47.888Z,1017.05
2018-06-09T03:38:15.213Z,1017.04
2018-06-09T03:39:42.689Z,1017.03
2018-06-09T03:41:10.105Z,1017.01
2018-06-09T03:42:37.442Z,1016.98
2018-06-09T03:44:04.992Z,1016.96
2018-06-09T03:45:32.364Z,1016.95
2018-06-09T03:46:59.712Z,1016.95
2018-06-09T03:48:26.910Z,1016.94
2018-06-09T03:49:54.449Z,1016.94
2018-06-09T03:51:21.750Z,1016.93
2018-06-09T03:52:49.182Z,1016.89
2018-06-09T03:54:16.523Z,1016.90
2018-06-09T03:55:43.947Z,1016.90
2018-06-09T03:57:11.632Z,1016.83
2018-06-09T03:58:38.921Z,1016.83
2018-06-09T04:00:06.457Z,1016.82
2018-06-09T04:01:34.034Z,1016.80
2018-06-09T04:03:01.283Z,1016.81
2018-06-09T04:04:28.844Z,1016.79
2018-06-09T04:05:56.219Z,1016.81
2018-06-09T04:07:23.835Z,1016.80
2018-06-09T04:08:51.238Z,1016.81
2018-06-09T04:10:18.646Z,1016.81
2018-06-09T04:11:46.192Z,1016.80
2018-06-09T04:13:13.728Z,1016.83
2018-06-09T04:14:40.873Z,1016.84
2018-06-09T04:16:08.328Z,1016.82
2018-06-09T04:17:35.638Z,1016.81
2018-06-09T04:19:03.292Z,1016.77
2018-06-09T04:20:30.501Z,1016.74
2018-06-09T04:21:58.076Z,1016.78
2018-06-09T04:23:25.493Z,1016.79
2018-06-09T04:24:52.972Z,1016.83
2018-06-09T04:26:20.498Z,1016.85
2018-06-09T04:27:47.836Z,1016.83
2018-06-09T04:29:15.237Z,1016.82
2018-06-09T04:30:42.524Z,1016.82
2018-06-09T04:32:10.059Z,1016.81
2018-06-09T04:33:37.498Z,1016.81
2018-06-09T04:35:04.844Z,1016.82
2018-06-09T04:36:32.113Z,1016.81
2018-06-09T04:37:59.768Z,1016.78
2018-06-09T04:39:27.249Z,1016.74
2018-06-09T04:40:54.785Z,1016.74
2018-06-09T04:42:22.399Z,1016.72
2018-06-09T04:43:49.787Z,1016.73
2018-06-09T04:45:17.350Z,1016.75
2018-06-09T04:46:44.794Z,1016.77
2018-06-09T04:48:12.214Z,1016.79
2018-06-09T04:49:39.734Z,1016.81
2018-06-09T04:51:07.300Z,1016.83
2018-06-09T04:52:34.749Z,1016.86
2018-06-09T04:54:02.133Z,1016.87
2018-06-09T04:55:29.470Z,1016.87
2018-06-09T04:56:56.936Z,1016.89
2018-06-09T04:58:24.585Z,1016.90
2018-06-09T04:59:51.715Z,1016.85
2018-06-09T05:01:19.326Z,1016.81
2018-06-09T05:02:46.446Z,1016.80
2018-06-09T05:04:13.832Z,1016.77
2018-06-09T05:05:41.313Z,1016.79
2018-06-09T05:07:08.824Z,1016.78
2018-06-09T05:08:36.158Z,1016.80
2018-06-09T05:10:03.764Z,1016.77
2018-06-09T05:11:31.379Z,1016.76
2018-06-09T05:12:58.729Z,1016.75
2018-06-09T05:14:26.421Z,1016.72
2018-06-09T05:15:53.827Z,1016.70
2018-06-09T05:17:21.456Z,1016.69
2018-06-09T05:18:48.660Z,1016.72
2018-06-09T05:20:16.205Z,1016.70
2018-06-09T05:21:43.450Z,1016.70
2018-06-09T05:23:10.891Z,1016.70
2018-06-09T05:24:38.381Z,1016.72
2018-06-09T05:26:05.852Z,1016.72
2018-06-09T05:27:33.461Z,1016.73
2018-06-09T05:29:00.642Z,1016.70
2018-06-09T05:30:28.105Z,1016.71
2018-06-09T05:31:55.633Z,1016.69
2018-06-09T05:33:23.147Z,1016.68
2018-06-09T05:34:50.804Z,1016.63
2018-06-09T05:36:18.561Z,1016.60
2018-06-09T05:37:46.173Z,1016.63
2018-06-09T05:39:13.723Z,1016.61
2018-06-09T05:40:41.267Z,1016.58
2018-06-09T05:42:08.952Z,1016.56
2018-06-09T05:43:36.424Z,1016.52
2018-06-09T05:45:03.966Z,1016.53
2018-06-09T05:46:31.653Z,1016.51
2018-06-09T05:47:59.055Z,1016.51
2018-06-09T05:49:26.620Z,1016.52
2018-06-09T05:50:54.151Z,1016.51
2018-06-09T05:52:21.814Z,1016.50
2018-06-09T05:53:49.459Z,1016.47
2018-06-09T05:55:17.043Z,1016.47
2018-06-09T05:56:44.517Z,1016.46
2018-06-09T05:58:11.740Z,1016.45
2018-06-09T05:59:39.225Z,1016.45
2018-06-09T06:01:06.668Z,1016.46
2018-06-09T06:02:34.241Z,1016.48
2018-06-09T06:04:01.643Z,1016.50
2018-06-09T06:05:29.166Z,1016.53
2018-06-09T06:06:56.799Z,1016.58
2018-06-09T06:08:24.090Z,1016.59
2018-06-09T06:09:51.809Z,1016.61
2018-06-09T06:11:19.367Z,1016.62
2018-06-09T06:12:46.840Z,1016.65
2018-06-09T06:14:14.379Z,1016.64
2018-06-09T06:15:41.951Z,1016.64
2018-06-09T06:17:09.423Z,1016.65
2018-06-09T06:18:37.031Z,1016.64
2018-06-09T06:20:04.355Z,1016.64
2018-06-09T06:21:31.702Z,1016.65
2018-06-09T06:22:59.326Z,1016.63
2018-06-09T06:24:27.165Z,1016.63
2018-06-09T06:25:54.928Z,1016.62
2018-06-09T06:27:22.561Z,1016.60
2018-06-09T06:28:50.021Z,1016.60
2018-06-09T06:30:17.382Z,1016.60
2018-06-09T06:31:45.122Z,1016.56
2018-06-09T06:33:12.841Z,1016.57
2018-06-09T06:34:40.584Z,1016.56
2018-06-09T06:36:08.211Z,1016.50
2018-06-09T06:37:35.968Z,1016.50
2018-06-09T06:39:03.665Z,1016.51
2018-06-09T06:40:31.357Z,1016.48
2018-06-09T06:41:58.576Z,1016.48
2018-06-09T06:43:26.299Z,1016.44
2018-06-09T06:44:54.036Z,1016.40
2018-06-09T06:46:21.673Z,1016.37
2018-06-09T06:47:49.375Z,1016.35
2018-06-09T06:49:17.179Z,1016.34
2018-06-09T06:50:44.916Z,1016.38
2018-06-09T06:52:12.590Z,1016.39
2018-06-09T06:53:40.294Z,1016.42
2018-06-09T06:55:08.614Z,1016.42
2018-06-09T06:56:35.441Z,1016.45
2018-06-09T06:58:03.162Z,1016.45
2018-06-09T06:59:30.603Z,1016.47
2018-06-09T07:00:58.286Z,1016.48
2018-06-09T07:02:25.940Z,1016.47
2018-06-09T07:03:53.452Z,1016.50
2018-06-09T07:05:21.133Z,1016.51
2018-06-09T07:06:48.802Z,1016.54
2018-06-09T07:08:16.432Z,1016.52
2018-06-09T07:09:44.028Z,1016.52
2018-06-09T07:11:11.780Z,1016.47
2018-06-09T07:12:39.276Z,1016.45
2018-06-09T07:14:06.974Z,1016.43
2018-06-09T07:15:34.625Z,1016.44
2018-06-09T07:17:02.025Z,1016.44
2018-06-09T07:18:29.731Z,1016.43
2018-06-09T07:19:57.479Z,1016.42
2018-06-09T07:21:25.037Z,1016.41
2018-06-09T07:22:52.670Z,1016.45
2018-06-09T07:24:20.441Z,1016.41
2018-06-09T07:25:48.161Z,1016.39
2018-06-09T07:27:15.803Z,1016.38
2018-06-09T07:28:43.436Z,1016.37
2018-06-09T07:30:11.082Z,1016.37
2018-06-09T07:31:38.654Z,1016.38
2018-06-09T07:33:06.252Z,1016.38
2018-06-09T07:34:33.959Z,1016.38
2018-06-09T07:36:01.530Z,1016.37
2018-06-09T07:37:29.225Z,1016.37
2018-06-09T07:38:56.953Z,1016.38
2018-06-09T07:40:24.590Z,1016.40
2018-06-09T07:41:52.174Z,1016.40
2018-06-09T07:43:20.000Z,1016.42
2018-06-09T07:44:47.650Z,1016.42
2018-06-09T07:46:15.234Z,1016.42
2018-06-09T07:47:42.807Z,1016.45
2018-06-09T07:49:10.556Z,1016.44
2018-06-09T07:50:38.175Z,1016.47
2018-06-09T07:52:05.805Z,1016.46
2018-06-09T07:53:33.614Z,1016.48
2018-06-09T07:55:01.220Z,1016.48
2018-06-09T07:56:28.960Z,1016.54
2018-06-09T07:57:56.655Z,1016.49
2018-06-09T07:59:24.062Z,1016.49
2018-06-09T08:00:51.745Z,1016.55
2018-06-09T08:02:19.424Z,1016.55
2018-06-09T08:03:46.688Z,1016.60
2018-06-09T08:05:14.284Z,1016.59
2018-06-09T08:06:41.890Z,1016.57
2018-06-09T08:08:09.565Z,1016.59
2018-06-09T08:09:37.275Z,1016.59
2018-06-09T08:11:04.825Z,1016.63
2018-06-09T08:12:32.423Z,1016.67
2018-06-09T08:13:59.747Z,1016.61
2018-06-09T08:15:27.188Z,1016.59
2018-06-09T08:16:54.938Z,1016.58
2018-06-09T08:18:22.463Z,1016.59
2018-06-09T08:19:50.179Z,1016.56
2018-06-09T08:21:17.815Z,1016.57
2018-06-09T08:22:45.637Z,1016.58
2018-06-09T08:24:13.389Z,1016.56
2018-06-09T08:25:41.146Z,1016.53
2018-06-09T08:27:08.827Z,1016.52
2018-06-09T08:28:36.473Z,1016.49
2018-06-09T08:30:04.087Z,1016.50
2018-06-09T08:31:31.820Z,1016.51
2018-06-09T08:32:59.537Z,1016.51
2018-06-09T08:34:27.215Z,1016.50
2018-06-09T08:35:55.044Z,1016.46
2018-06-09T08:37:22.696Z,1016.48
2018-06-09T08:38:50.515Z,1016.44
2018-06-09T08:40:18.271Z,1016.45
2018-06-09T08:41:45.781Z,1016.44
2018-06-09T08:43:13.272Z,1016.45
2018-06-09T08:44:41.113Z,1016.47
2018-06-09T08:46:08.649Z,1016.46
2018-06-09T08:47:36.371Z,1016.47
2018-06-09T08:49:04.040Z,1016.48
2018-06-09T08:50:31.632Z,1016.47
2018-06-09T08:51:59.283Z,1016.48
2018-06-09T08:53:27.025Z,1016.47
2018-06-09T08:54:54.615Z,1016.44
2018-06-09T08:56:22.404Z,1016.46
2018-06-09T08:57:49.971Z,1016.48
2018-06-09T08:59:17.631Z,1016.45
2018-06-09T09:00:45.215Z,1016.44
2018-06-09T09:02:12.659Z,1016.43
2018-06-09T09:03:40.256Z,1016.42
2018-06-09T09:05:07.711Z,1016.44
2018-06-09T09:06:35.234Z,1016.45
2018-06-09T09:08:02.701Z,1016.45
2018-06-09T09:09:30.227Z,1016.44
2018-06-09T09:10:57.889Z,1016.41
2018-06-09T09:12:25.623Z,1016.44
2018-06-09T09:13:53.298Z,1016.41
2018-06-09T09:15:21.026Z,1016.44
2018-06-09T09:16:48.771Z,1016.43
2018-06-09T09:18:16.247Z,1016.42
2018-06-09T09:19:43.948Z,1016.40
2018-06-09T09:21:11.696Z,1016.35
2018-06-09T09:22:39.309Z,1016.36
2018-06-09T09:24:06.884Z,1016.36
2018-06-09T09:25:34.165Z,1016.36
2018-06-09T09:27:01.891Z,1016.33
2018-06-09T09:28:29.502Z,1016.31
2018-06-09T09:29:57.111Z,1016.33
2018-06-09T09:31:24.707Z,1016.34
2018-06-09T09:32:52.380Z,1016.31
2018-06-09T09:34:20.094Z,1016.29
2018-06-09T09:35:47.787Z,1016.30
2018-06-09T09:37:15.537Z,1016.26
2018-06-09T09:38:43.259Z,1016.26
2018-06-09T09:40:10.977Z,1016.24
2018-06-09T09:41:38.608Z,1016.25
2018-06-09T09:43:06.361Z,1016.24
2018-06-09T09:44:34.038Z,1016.22
2018-06-09T09:46:01.705Z,1016.21
2018-06-09T09:47:29.434Z,1016.18
2018-06-09T09:48:57.152Z,1016.16
2018-06-09T09:50:24.971Z,1016.14
2018-06-09T09:51:52.734Z,1016.13
2018-06-09T09:53:20.452Z,1016.12
2018-06-09T09:54:48.128Z,1016.12
2018-06-09T09:56:15.655Z,1016.13
2018-06-09T09:57:43.459Z,1016.12
2018-06-09T09:59:10.835Z,1016.16
2018-06-09T10:00:38.438Z,1016.16
2018-06-09T10:02:06.272Z,1016.15
2018-06-09T10:03:33.939Z,1016.16
2018-06-09T10:05:01.492Z,1016.17
2018-06-09T10:06:29.339Z,1016.15
2018-06-09T10:07:56.913Z,1016.18
2018-06-09T10:09:24.736Z,1016.17
2018-06-09T10:10:52.442Z,1016.15
2018-06-09T10:12:20.196Z,1016.13
2018-06-09T10:13:47.950Z,1016.14
2018-06-09T10:15:15.524Z,1016.08
2018-06-09T10:16:43.063Z,1016.07
2018-06-09T10:18:10.728Z,1016.08
2018-06-09T10:19:38.512Z,1016.05
2018-06-09T10:21:06.289Z,1016.06
2018-06-09T10:22:33.993Z,1016.03
2018-06-09T10:24:01.579Z,1016.04
2018-06-09T10:25:29.164Z,1016.01
2018-06-09T10:26:56.951Z,1016.00
2018-06-09T10:28:24.567Z,1015.98
2018-06-09T10:29:52.248Z,1015.96
2018-06-09T10:31:19.889Z,1015.98
2018-06-09T10:32:47.633Z,1015.96
2018-06-09T10:34:15.387Z,1015.93
2018-06-09T10:35:43.026Z,1015.93
2018-06-09T10:37:10.856Z,1015.91
2018-06-09T10:38:38.581Z,1015.89
2018-06-09T10:40:06.112Z,1015.86
2018-06-09T10:41:33.870Z,1015.85
2018-06-09T10:43:01.536Z,1015.86
2018-06-09T10:44:29.243Z,1015.85
2018-06-09T10:45:56.860Z,1015.85
2018-06-09T10:47:24.691Z,1015.87
2018-06-09T10:48:52.429Z,1015.87
2018-06-09T10:50:20.149Z,1015.89
2018-06-09T10:51:47.784Z,1015.89
2018-06-09T10:53:15.560Z,1015.85
2018-06-09T10:54:43.336Z,1015.80
2018-06-09T10:56:11.078Z,1015.76
2018-06-09T10:57:38.623Z,1015.74
2018-06-09T10:59:06.077Z,1015.72
2018-06-09T11:00:33.791Z,1015.69
2018-06-09T11:02:01.500Z,1015.67
2018-06-09T11:03:29.114Z,1015.66
2018-06-09T11:04:56.850Z,1015.67
2018-06-09T11:06:24.472Z,1015.67
2018-06-09T11:07:52.124Z,1015.65
2018-06-09T11:09:19.787Z,1015.63
2018-06-09T11:10:47.320Z,1015.59
2018-06-09T11:12:15.063Z,1015.58
2018-06-09T11:13:42.754Z,1015.58
2018-06-09T11:15:10.393Z,1015.57
2018-06-09T11:16:38.092Z,1015.57
2018-06-09T11:18:05.733Z,1015.54
2018-06-09T11:19:33.444Z,1015.50
2018-06-09T11:21:00.907Z,1015.51
2018-06-09T11:22:28.641Z,1015.49
2018-06-09T11:23:56.506Z,1015.49
2018-06-09T11:25:24.282Z,1015.46
2018-06-09T11:26:52.000Z,1015.46
2018-06-09T11:28:19.503Z,1015.46
2018-06-09T11:29:47.355Z,1015.42
2018-06-09T11:31:15.092Z,1015.38
2018-06-09T11:32:42.668Z,1015.39
2018-06-09T11:34:10.505Z,1015.37
2018-06-09T11:35:38.349Z,1015.34
2018-06-09T11:37:06.104Z,1015.31
2018-06-09T11:38:33.713Z,1015.25
2018-06-09T11:40:01.438Z,1015.27
2018-06-09T11:41:29.216Z,1015.23
2018-06-09T11:42:57.007Z,1015.22
2018-06-09T11:44:24.664Z,1015.17
2018-06-09T11:45:52.547Z,1015.17
2018-06-09T11:47:20.069Z,1015.18
2018-06-09T11:48:47.834Z,1015.18
2018-06-09T11:50:15.533Z,1015.17
2018-06-09T11:51:43.334Z,1015.17
2018-06-09T11:53:11.120Z,1015.19
2018-06-09T11:54:38.737Z,1015.15
2018-06-09T11:56:06.513Z,1015.13
2018-06-09T11:57:34.061Z,1015.15
2018-06-09T11:59:01.757Z,1015.14
2018-06-09T12:00:29.593Z,1015.12
2018-06-09T12:01:57.286Z,1015.12
2018-06-09T12:03:24.982Z,1015.11
2018-06-09T12:04:52.723Z,1015.10
2018-06-09T12:06:20.599Z,1015.10
2018-06-09T12:07:48.327Z,1015.09
2018-06-09T12:09:15.639Z,1015.09
2018-06-09T12:10:43.359Z,1015.10
2018-06-09T12:12:11.150Z,1015.07
2018-06-09T12:13:38.828Z,1015.06
2018-06-09T12:15:06.646Z,1015.06
2018-06-09T12:16:34.220Z,1015.07
2018-06-09T12:18:01.988Z,1015.05
2018-06-09T12:19:29.701Z,1015.06
2018-06-09T12:20:57.181Z,1015.07
2018-06-09T12:22:24.826Z,1015.03
2018-06-09T12:23:52.700Z,1015.04
2018-06-09T12:25:20.435Z,1015.05
2018-06-09T12:26:48.409Z,1015.06
2018-06-09T12:28:16.084Z,1015.05
2018-06-09T12:29:43.710Z,1015.04
2018-06-09T12:31:11.401Z,1015.02
2018-06-09T12:32:39.308Z,1015.02
2018-06-09T12:34:07.068Z,1015.00
2018-06-09T12:35:34.757Z,1015.01
2018-06-09T12:37:02.299Z,1015.04
2018-06-09T12:38:29.944Z,1015.05
2018-06-09T12:39:57.665Z,1015.04
2018-06-09T12:41:25.393Z,1015.02
2018-06-09T12:42:53.052Z,1015.02
2018-06-09T12:44:20.869Z,1015.02
2018-06-09T12:45:48.366Z,1015.01
2018-06-09T12:47:16.186Z,1014.99
2018-06-09T12:48:43.884Z,1015.01
2018-06-09T12:50:11.682Z,1015.00
2018-06-09T12:51:39.431Z,1014.98
2018-06-09T12:53:07.188Z,1014.96
2018-06-09T12:54:35.033Z,1014.96
2018-06-09T12:56:02.812Z,1014.95
2018-06-09T12:57:30.480Z,1014.93
2018-06-09T12:58:58.347Z,1014.95
2018-06-09T13:00:25.836Z,1014.92
2018-06-09T13:01:53.359Z,1014.94
2018-06-09T13:03:21.023Z,1014.94
2018-06-09T13:04:48.742Z,1014.91
2018-06-09T13:06:16.414Z,1014.92
2018-06-09T13:07:44.113Z,1014.87
2018-06-09T13:09:11.614Z,1014.87
2018-06-09T13:10:39.400Z,1014.86
2018-06-09T13:12:07.137Z,1014.86
2018-06-09T13:13:34.882Z,1014.87
2018-06-09T13:15:02.480Z,1014.84
2018-06-09T13:16:29.790Z,1014.86
2018-06-09T13:17:57.575Z,1014.85
2018-06-09T13:19:25.375Z,1014.83
2018-06-09T13:20:52.815Z,1014.81
2018-06-09T13:22:20.658Z,1014.78
2018-06-09T13:23:48.078Z,1014.79
2018-06-09T13:25:15.829Z,1014.74
2018-06-09T13:26:43.486Z,1014.78
2018-06-09T13:28:11.240Z,1014.77
2018-06-09T13:29:38.929Z,1014.75
2018-06-09T13:31:06.680Z,1014.70
2018-06-09T13:32:34.519Z,1014.70
2018-06-09T13:34:02.041Z,1014.69
2018-06-09T13:35:29.458Z,1014.70
2018-06-09T13:36:57.224Z,1014.70
2018-06-09T13:38:25.030Z,1014.72
2018-06-09T13:39:52.816Z,1014.69
2018-06-09T13:41:20.251Z,1014.67
2018-06-09T13:42:47.848Z,1014.67
2018-06-09T13:44:15.604Z,1014.64
2018-06-09T13:45:43.211Z,1014.66
2018-06-09T13:47:10.934Z,1014.70
2018-06-09T13:48:38.631Z,1014.70
2018-06-09T13:50:06.378Z,1014.71
2018-06-09T13:51:34.125Z,1014.68
2018-06-09T13:53:01.809Z,1014.67
2018-06-09T13:54:29.431Z,1014.64
2018-06-09T13:55:57.182Z,1014.60
2018-06-09T13:57:24.997Z,1014.59
2018-06-09T13:58:52.641Z,1014.58
2018-06-09T14:00:19.780Z,1014.57
2018-06-09T14:01:47.464Z,1014.56
2018-06-09T14:03:15.280Z,1014.55
2018-06-09T14:04:42.736Z,1014.62
2018-06-09T14:06:10.365Z,1014.60
2018-06-09T14:07:38.118Z,1014.56
2018-06-09T14:09:05.833Z,1014.64
2018-06-09T14:10:33.718Z,1014.63
2018-06-09T14:12:01.175Z,1014.67
2018-06-09T14:13:29.014Z,1014.68
2018-06-09T14:14:56.776Z,1014.64
2018-06-09T14:16:24.413Z,1014.62
2018-06-09T14:17:52.088Z,1014.61
2018-06-09T14:19:19.788Z,1014.61
2018-06-09T14:20:47.502Z,1014.64
2018-06-09T14:22:15.072Z,1014.64
2018-06-09T14:23:42.876Z,1014.67
2018-06-09T14:25:10.671Z,1014.65
2018-06-09T14:26:38.321Z,1014.64
2018-06-09T14:28:06.095Z,1014.63
2018-06-09T14:29:33.544Z,1014.64
2018-06-09T14:31:01.367Z,1014.65
2018-06-09T14:32:29.049Z,1014.66
2018-06-09T14:33:56.689Z,1014.69
2018-06-09T14:35:24.449Z,1014.71
2018-06-09T14:36:52.261Z,1014.70
2018-06-09T14:38:19.843Z,1014.68
2018-06-09T14:39:47.307Z,1014.66
2018-06-09T14:41:14.969Z,1014.71
2018-06-09T14:42:42.675Z,1014.70
2018-06-09T14:44:10.547Z,1014.73
2018-06-09T14:45:38.197Z,1014.72
2018-06-09T14:47:05.985Z,1014.69
2018-06-09T14:48:33.587Z,1014.71
2018-06-09T14:50:01.315Z,1014.71
2018-06-09T14:51:29.011Z,1014.72
2018-06-09T14:52:56.733Z,1014.69
2018-06-09T14:54:24.574Z,1014.71
2018-06-09T14:55:52.323Z,1014.69
2018-06-09T14:57:19.960Z,1014.69
2018-06-09T14:58:47.566Z,1014.66
2018-06-09T15:00:15.364Z,1014.66
2018-06-09T15:01:43.094Z,1014.64
2018-06-09T15:03:10.623Z,1014.65
2018-06-09T15:04:38.306Z,1014.67
2018-06-09T15:06:06.024Z,1014.67
2018-06-09T15:07:33.719Z,1014.66
2018-06-09T15:09:01.381Z,1014.66
2018-06-09T15:10:29.052Z,1014.66
2018-06-09T15:11:56.838Z,1014.65
2018-06-09T15:13:24.592Z,1014.63
2018-06-09T15:14:52.339Z,1014.62
2018-06-09T15:16:20.052Z,1014.61
2018-06-09T15:17:47.847Z,1014.61
2018-06-09T15:19:15.516Z,1014.62
2018-06-09T15:20:43.161Z,1014.64
2018-06-09T15:22:10.937Z,1014.64
2018-06-09T15:23:38.609Z,1014.62
2018-06-09T15:25:06.343Z,1014.63
2018-06-09T15:26:33.971Z,1014.63
2018-06-09T15:28:01.700Z,1014.64
2018-06-09T15:29:29.362Z,1014.63
2018-06-09T15:30:58.106Z,1014.63
2018-06-09T15:32:24.584Z,1014.61
2018-06-09T15:33:52.406Z,1014.62
2018-06-09T15:35:20.095Z,1014.63
2018-06-09T15:36:47.776Z,1014.64
2018-06-09T15:38:15.530Z,1014.64
2018-06-09T15:39:43.262Z,1014.64
2018-06-09T15:41:10.980Z,1014.65
2018-06-09T15:42:38.715Z,1014.64
2018-06-09T15:44:06.456Z,1014.64
2018-06-09T15:45:34.003Z,1014.66
2018-06-09T15:47:01.834Z,1014.68
2018-06-09T15:48:29.541Z,1014.65
2018-06-09T15:49:57.268Z,1014.64
2018-06-09T15:51:25.080Z,1014.64
2018-06-09T15:52:52.688Z,1014.63
2018-06-09T15:54:20.461Z,1014.65
2018-06-09T15:55:48.120Z,1014.61
2018-06-09T15:57:15.972Z,1014.62
2018-06-09T15:58:43.531Z,1014.59
2018-06-09T16:00:11.319Z,1014.59
2018-06-09T16:01:38.950Z,1014.58
2018-06-09T16:03:06.623Z,1014.60
2018-06-09T16:04:34.328Z,1014.59
2018-06-09T16:06:01.983Z,1014.59
2018-06-09T16:07:29.607Z,1014.59
2018-06-09T16:08:57.344Z,1014.58
2018-06-09T16:10:25.096Z,1014.58
2018-06-09T16:11:52.539Z,1014.56
2018-06-09T16:13:20.284Z,1014.56
2018-06-09T16:14:47.993Z,1014.55
2018-06-09T16:16:15.770Z,1014.53
2018-06-09T16:17:43.555Z,1014.52
2018-06-09T16:19:11.304Z,1014.54
2018-06-09T16:20:39.015Z,1014.53
2018-06-09T16:22:06.757Z,1014.55
2018-06-09T16:23:34.551Z,1014.58
2018-06-09T16:25:02.182Z,1014.56
2018-06-09T16:26:29.823Z,1014.56
2018-06-09T16:27:57.460Z,1014.55
2018-06-09T16:29:25.179Z,1014.54
2018-06-09T16:30:52.736Z,1014.52
2018-06-09T16:32:20.457Z,1014.51
2018-06-09T16:33:48.043Z,1014.48
2018-06-09T16:35:15.800Z,1014.49
2018-06-09T16:36:43.420Z,1014.51
2018-06-09T16:38:11.077Z,1014.53
2018-06-09T16:39:38.876Z,1014.53
2018-06-09T16:41:06.506Z,1014.51
2018-06-09T16:42:34.216Z,1014.52
2018-06-09T16:44:01.681Z,1014.49
2018-06-09T16:45:29.532Z,1014.73
2018-06-09T16:46:57.219Z,1014.75
2018-06-09T16:48:24.799Z,1014.76
2018-06-09T16:49:52.292Z,1014.80
2018-06-09T16:51:19.919Z,1014.83
2018-06-09T16:52:47.628Z,1014.85
2018-06-09T16:54:15.071Z,1014.90
2018-06-09T16:55:42.862Z,1014.91
2018-06-09T16:57:10.464Z,1014.94
2018-06-09T16:58:38.104Z,1014.95
2018-06-09T17:00:05.769Z,1014.96
2018-06-09T17:01:33.206Z,1014.97
2018-06-09T17:03:00.716Z,1014.98
2018-06-09T17:04:28.294Z,1014.94
2018-06-09T17:05:55.704Z,1014.91
2018-06-09T17:07:23.469Z,1014.89
2018-06-09T17:08:51.012Z,1014.89
2018-06-09T17:10:18.537Z,1014.91
2018-06-09T17:11:46.192Z,1014.87
2018-06-09T17:13:13.925Z,1014.87
2018-06-09T17:14:41.379Z,1014.92
2018-06-09T17:16:08.996Z,1014.90
2018-06-09T17:17:36.668Z,1014.84
2018-06-09T17:19:04.123Z,1014.84
2018-06-09T17:20:31.907Z,1014.81
2018-06-09T17:21:59.585Z,1014.79
2018-06-09T17:23:27.124Z,1014.79
2018-06-09T17:24:54.771Z,1014.79
2018-06-09T17:26:22.435Z,1014.83
2018-06-09T17:27:50.081Z,1014.83
2018-06-09T17:29:17.709Z,1014.86
2018-06-09T17:30:45.326Z,1014.86
2018-06-09T17:32:13.001Z,1014.85
2018-06-09T17:33:40.648Z,1014.86
2018-06-09T17:35:08.325Z,1014.88
2018-06-09T17:36:35.997Z,1014.88
2018-06-09T17:38:03.664Z,1014.89
2018-06-09T17:39:31.280Z,1014.89